createdAt,value
2018-05-15T00:00:36.041Z,15.93
2018-05-15T00:03:05.497Z,10.77
2018-05-15T00:05:34.970Z,8.97
2018-05-15T00:08:04.112Z,14.80
2018-05-15T00:10:33.559Z,11.90
2018-05-15T00:13:03.113Z,11.80
2018-05-15T00:15:32.564Z,10.00
2018-05-15T00:18:02.052Z,11.37
2018-05-15T00:20:31.530Z,10.53
2018-05-15T00:23:01.029Z,10.60
2018-05-15T00:25:30.489Z,13.50
2018-05-15T00:28:00.329Z,8.60
2018-05-15T00:30:30.205Z,9.50
2018-05-15T00:32:59.650Z,8.50
2018-05-15T00:35:29.135Z,10.37
2018-05-15T00:37:58.605Z,13.07
2018-05-15T00:40:28.453Z,11.23
2018-05-15T00:42:57.979Z,10.40
2018-05-15T00:45:27.452Z,12.13
2018-05-15T00:47:56.921Z,12.20
2018-05-15T00:50:26.087Z,15.03
2018-05-15T00:52:55.602Z,9.47
2018-05-15T00:55:36.345Z,8.50
2018-05-15T00:58:05.797Z,13.93
2018-05-15T01:00:34.940Z,18.60
2018-05-15T01:03:04.477Z,10.50
2018-05-15T01:05:34.340Z,15.80
2018-05-15T01:08:03.815Z,8.70
2018-05-15T01:10:33.252Z,9.83
2018-05-15T01:13:02.729Z,10.63
2018-05-15T01:15:32.201Z,14.93
2018-05-15T01:18:01.646Z,11.60
2018-05-15T01:20:31.134Z,8.37
2018-05-15T01:23:00.329Z,12.10
2018-05-15T01:25:30.210Z,11.00
2018-05-15T01:27:59.397Z,8.40
2018-05-15T01:30:28.836Z,12.20
2018-05-15T01:32:58.307Z,9.00
2018-05-15T01:35:28.165Z,9.37
2018-05-15T01:37:57.642Z,10.03
2018-05-15T01:40:27.135Z,9.10
2018-05-15T01:42:56.581Z,10.77
2018-05-15T01:45:26.033Z,9.63
2018-05-15T01:47:55.194Z,11.90
2018-05-15T01:50:24.643Z,11.00
2018-05-15T01:52:54.117Z,10.73
2018-05-15T01:55:23.565Z,7.57
2018-05-15T01:57:53.034Z,12.63
2018-05-15T02:00:22.496Z,11.63
2018-05-15T02:02:51.680Z,9.30
2018-05-15T02:05:21.133Z,10.20
2018-05-15T02:07:50.576Z,14.00
2018-05-15T02:10:20.058Z,8.53
2018-05-15T02:12:49.505Z,13.23
2018-05-15T02:15:18.948Z,11.03
2018-05-15T02:17:48.796Z,15.17
2018-05-15T02:20:18.269Z,10.13
2018-05-15T02:22:47.730Z,10.13
2018-05-15T02:25:17.604Z,14.47
2018-05-15T02:27:47.061Z,8.53
2018-05-15T02:30:16.537Z,15.30
2018-05-15T02:32:46.001Z,8.53
2018-05-15T02:35:15.461Z,13.07
2018-05-15T02:37:44.931Z,11.23
2018-05-15T02:40:14.401Z,13.73
2018-05-15T02:42:43.856Z,11.00
2018-05-15T02:45:13.338Z,17.67
2018-05-15T02:47:42.769Z,14.20
2018-05-15T02:50:12.226Z,11.93
2018-05-15T02:52:41.697Z,11.93
2018-05-15T02:55:10.869Z,13.47
2018-05-15T02:57:40.343Z,17.27
2018-05-15T03:00:09.600Z,13.87
2018-05-15T03:02:39.050Z,21.40
2018-05-15T03:05:08.928Z,11.90
2018-05-15T03:07:38.376Z,11.10
2018-05-15T03:10:07.833Z,11.20
2018-05-15T03:12:37.292Z,14.00
2018-05-15T03:15:06.410Z,10.87
2018-05-15T03:17:35.890Z,10.90
2018-05-15T03:20:06.333Z,10.07
2018-05-15T03:22:35.812Z,11.27
2018-05-15T03:25:05.269Z,11.63
2018-05-15T03:27:34.724Z,12.73
2018-05-15T03:30:03.868Z,12.90
2018-05-15T03:32:33.342Z,11.57
2018-05-15T03:35:02.768Z,13.73
2018-05-15T03:37:32.225Z,17.00
2018-05-15T03:40:01.678Z,12.43
2018-05-15T03:42:31.133Z,13.57
2018-05-15T03:45:00.609Z,16.70
2018-05-15T03:47:30.481Z,10.03
2018-05-15T03:49:59.917Z,12.90
2018-05-15T03:52:29.399Z,13.90
2018-05-15T03:54:58.625Z,12.10
2018-05-15T03:57:28.106Z,11.50
2018-05-15T03:59:57.584Z,26.20
2018-05-15T04:02:38.019Z,14.90
2018-05-15T04:05:18.289Z,13.90
2018-05-15T04:10:49.896Z,10.53
2018-05-15T04:13:19.473Z,17.23
2018-05-15T04:15:49.380Z,14.60
2018-05-15T04:18:18.897Z,13.43
2018-05-15T04:20:48.374Z,21.93
2018-05-15T04:23:17.827Z,16.07
2018-05-15T04:25:47.305Z,18.53
2018-05-15T04:28:16.861Z,15.10
2018-05-15T04:30:46.406Z,14.40
2018-05-15T04:33:15.868Z,19.50
2018-05-15T04:35:45.322Z,16.57
2018-05-15T04:38:14.784Z,17.37
2018-05-15T04:40:44.338Z,16.30
2018-05-15T04:43:14.193Z,16.47
2018-05-15T04:45:43.665Z,16.23
2018-05-15T04:48:13.532Z,15.87
2018-05-15T04:50:43.001Z,13.67
2018-05-15T04:53:12.610Z,19.03
2018-05-15T04:55:42.183Z,12.83
2018-05-15T04:58:11.769Z,17.50
2018-05-15T05:00:41.221Z,20.27
2018-05-15T05:03:10.689Z,13.27
2018-05-15T05:05:40.154Z,13.77
2018-05-15T05:08:10.021Z,13.87
2018-05-15T05:10:39.466Z,19.03
2018-05-15T05:13:08.937Z,15.50
2018-05-15T05:15:38.408Z,12.90
2018-05-15T05:18:08.030Z,15.57
2018-05-15T05:20:37.469Z,23.53
2018-05-15T05:23:06.926Z,16.77
2018-05-15T05:25:36.392Z,16.93
2018-05-15T05:28:05.541Z,17.30
2018-05-15T05:30:35.430Z,26.67
2018-05-15T05:33:05.113Z,11.50
2018-05-15T05:35:34.580Z,11.60
2018-05-15T05:38:03.694Z,19.50
2018-05-15T05:40:33.192Z,18.20
2018-05-15T05:43:02.629Z,23.83
2018-05-15T05:45:32.072Z,13.23
2018-05-15T05:48:01.977Z,14.53
2018-05-15T05:50:31.417Z,13.13
2018-05-15T05:53:01.299Z,9.53
2018-05-15T05:55:30.407Z,10.63
2018-05-15T05:57:59.642Z,10.53
2018-05-15T06:00:29.077Z,14.00
2018-05-15T06:02:58.536Z,12.30
2018-05-15T06:05:28.011Z,12.67
2018-05-15T06:07:57.457Z,8.13
2018-05-15T06:10:27.325Z,9.50
2018-05-15T06:12:56.829Z,13.03
2018-05-15T06:15:26.290Z,7.60
2018-05-15T06:17:55.754Z,10.23
2018-05-15T06:20:25.423Z,16.87
2018-05-15T06:22:54.986Z,9.43
2018-05-15T06:25:24.509Z,14.37
2018-05-15T06:27:53.936Z,10.20
2018-05-15T06:30:23.427Z,12.73
2018-05-15T06:32:52.885Z,13.83
2018-05-15T06:35:22.785Z,9.50
2018-05-15T06:37:52.234Z,13.83
2018-05-15T06:40:22.084Z,10.13
2018-05-15T06:42:51.549Z,7.20
2018-05-15T06:45:20.997Z,8.00
2018-05-15T06:47:50.470Z,8.67
2018-05-15T06:50:19.926Z,7.80
2018-05-15T06:52:49.398Z,8.30
2018-05-15T06:55:18.849Z,9.43
2018-05-15T06:57:48.350Z,7.20
2018-05-15T07:00:17.546Z,7.63
2018-05-15T07:02:47.019Z,6.60
2018-05-15T07:05:16.493Z,9.00
2018-05-15T07:07:45.963Z,9.60
2018-05-15T07:10:15.606Z,8.47
2018-05-15T07:12:45.436Z,9.33
2018-05-15T07:15:15.317Z,7.00
2018-05-15T07:17:44.768Z,7.20
2018-05-15T07:20:14.212Z,9.43
2018-05-15T07:22:43.688Z,6.90
2018-05-15T07:25:12.800Z,9.93
2018-05-15T07:27:42.001Z,7.93
2018-05-15T07:30:11.473Z,7.53
2018-05-15T07:32:41.345Z,7.87
2018-05-15T07:35:10.799Z,6.53
2018-05-15T07:37:40.234Z,6.50
2018-05-15T07:40:09.351Z,7.90
2018-05-15T07:42:39.204Z,8.20
2018-05-15T07:45:08.666Z,10.67
2018-05-15T07:47:38.122Z,8.50
2018-05-15T07:50:07.996Z,8.10
2018-05-15T07:52:37.452Z,7.00
2018-05-15T07:55:06.915Z,6.50
2018-05-15T07:57:36.356Z,13.70
2018-05-15T08:00:05.792Z,8.63
2018-05-15T08:02:35.242Z,12.10
2018-05-15T08:05:04.389Z,8.20
2018-05-15T08:07:33.837Z,6.47
2018-05-15T08:10:03.326Z,7.47
2018-05-15T08:12:33.169Z,7.83
2018-05-15T08:15:02.621Z,8.60
2018-05-15T08:17:32.085Z,8.50
2018-05-15T08:20:01.966Z,6.13
2018-05-15T08:22:31.508Z,6.30
2018-05-15T08:25:01.105Z,9.80
2018-05-15T08:27:30.564Z,6.60
2018-05-15T08:30:00.456Z,9.77
2018-05-15T08:32:29.917Z,6.30
2018-05-15T08:34:59.783Z,5.67
2018-05-15T08:37:29.233Z,5.93
2018-05-15T08:39:58.877Z,7.17
2018-05-15T08:42:28.335Z,8.57
2018-05-15T08:44:57.793Z,6.37
2018-05-15T08:47:27.317Z,8.33
2018-05-15T08:49:56.764Z,6.77
2018-05-15T08:52:26.261Z,7.40
2018-05-15T08:54:55.709Z,6.07
2018-05-15T08:57:25.609Z,5.43
2018-05-15T08:59:55.037Z,5.90
2018-05-15T09:02:24.472Z,6.73
2018-05-15T09:04:53.944Z,9.83
2018-05-15T09:07:23.400Z,6.80
2018-05-15T09:09:52.870Z,7.23
2018-05-15T09:12:22.342Z,6.03
2018-05-15T09:14:51.809Z,9.20
2018-05-15T09:17:21.273Z,6.10
2018-05-15T09:19:50.748Z,8.93
2018-05-15T09:22:20.221Z,8.00
2018-05-15T09:24:49.701Z,14.07
2018-05-15T09:27:18.882Z,6.10
2018-05-15T09:29:48.705Z,6.23
2018-05-15T09:32:18.602Z,6.33
2018-05-15T09:34:48.085Z,8.10
2018-05-15T09:37:17.948Z,7.60
2018-05-15T09:39:47.415Z,5.70
2018-05-15T09:42:17.289Z,5.93
2018-05-15T09:44:46.737Z,8.57
2018-05-15T09:47:16.180Z,7.50
2018-05-15T09:49:46.000Z,7.27
2018-05-15T09:52:15.872Z,5.47
2018-05-15T09:54:45.317Z,5.93
2018-05-15T09:57:14.797Z,7.00
2018-05-15T09:59:44.253Z,6.10
2018-05-15T10:02:13.724Z,7.03
2018-05-15T10:04:43.550Z,5.23
2018-05-15T10:07:13.435Z,4.83
2018-05-15T10:09:42.898Z,6.13
2018-05-15T10:12:12.455Z,8.13
2018-05-15T10:14:42.465Z,4.73
2018-05-15T10:17:12.363Z,7.40
2018-05-15T10:22:25.616Z,4.13
2018-05-15T10:24:55.062Z,6.17
2018-05-15T10:27:24.895Z,4.90
2018-05-15T10:29:54.662Z,7.70
2018-05-15T10:32:24.341Z,6.07
2018-05-15T10:34:54.317Z,6.90
2018-05-15T10:37:23.823Z,5.57
2018-05-15T10:39:53.394Z,5.00
2018-05-15T10:42:22.860Z,4.60
2018-05-15T10:44:52.716Z,4.40
2018-05-15T10:47:22.157Z,4.43
2018-05-15T10:49:51.590Z,7.50
2018-05-15T10:52:20.721Z,6.00
2018-05-15T10:54:50.189Z,4.73
2018-05-15T10:57:19.632Z,4.00
2018-05-15T10:59:49.074Z,6.27
2018-05-15T11:02:18.205Z,7.87
2018-05-15T11:04:48.057Z,5.60
2018-05-15T11:07:17.500Z,6.10
2018-05-15T11:09:46.687Z,9.90
2018-05-15T11:12:15.797Z,5.23
2018-05-15T11:14:44.966Z,6.10
2018-05-15T11:17:14.409Z,4.10
2018-05-15T11:22:53.310Z,5.00
2018-05-15T11:25:22.824Z,4.70
2018-05-15T11:27:52.245Z,5.97
2018-05-15T11:30:21.445Z,8.60
2018-05-15T11:32:50.889Z,4.90
2018-05-15T11:35:20.345Z,7.77
2018-05-15T11:37:49.940Z,6.17
2018-05-15T11:40:19.408Z,4.60
2018-05-15T11:42:49.272Z,4.50
2018-05-15T11:45:18.704Z,4.03
2018-05-15T11:47:48.573Z,10.50
2018-05-15T11:50:19.032Z,7.40
2018-05-15T11:52:48.194Z,5.43
2018-05-15T11:55:17.562Z,4.90
2018-05-15T11:57:47.501Z,9.83
2018-05-15T12:00:17.058Z,8.20
2018-05-15T12:02:46.574Z,6.10
2018-05-15T12:05:16.166Z,4.30
2018-05-15T12:07:45.618Z,5.07
2018-05-15T12:10:15.108Z,5.60
2018-05-15T12:12:45.033Z,5.13
2018-05-15T12:15:14.652Z,12.30
2018-05-15T12:17:44.501Z,6.17
2018-05-15T12:20:13.974Z,5.53
2018-05-15T12:22:43.409Z,11.70
2018-05-15T12:25:13.034Z,5.47
2018-05-15T12:27:43.322Z,5.40
2018-05-15T12:30:12.141Z,6.43
2018-05-15T12:32:41.590Z,4.30
2018-05-15T12:35:11.041Z,7.53
2018-05-15T12:37:40.518Z,4.70
2018-05-15T12:40:10.084Z,5.60
2018-05-15T12:42:40.038Z,9.53
2018-05-15T12:45:09.489Z,4.60
2018-05-15T12:47:38.952Z,9.03
2018-05-15T12:50:08.807Z,4.23
2018-05-15T12:52:38.360Z,5.70
2018-05-15T12:55:07.794Z,6.90
2018-05-15T12:57:37.246Z,7.23
2018-05-15T13:00:06.461Z,5.40
2018-05-15T13:02:36.307Z,7.30
2018-05-15T13:05:05.817Z,7.70
2018-05-15T13:07:35.299Z,5.60
2018-05-15T13:10:04.579Z,6.70
2018-05-15T13:12:34.030Z,11.00
2018-05-15T13:15:03.166Z,6.20
2018-05-15T13:17:32.596Z,5.17
2018-05-15T13:20:02.465Z,7.20
2018-05-15T13:22:31.895Z,7.20
2018-05-15T13:25:02.509Z,4.80
2018-05-15T13:27:32.035Z,6.90
2018-05-15T13:30:01.489Z,7.33
2018-05-15T13:32:30.913Z,7.30
2018-05-15T13:35:00.349Z,5.60
2018-05-15T13:37:29.782Z,13.07
2018-05-15T13:39:59.666Z,5.83
2018-05-15T13:42:29.114Z,6.37
2018-05-15T13:44:58.591Z,8.73
2018-05-15T13:47:28.049Z,7.20
2018-05-15T13:49:57.501Z,9.40
2018-05-15T13:52:27.349Z,5.23
2018-05-15T13:54:56.802Z,4.67
2018-05-15T13:57:26.260Z,4.93
2018-05-15T13:59:56.353Z,4.97
2018-05-15T14:02:25.850Z,6.87
2018-05-15T14:04:55.285Z,12.10
2018-05-15T14:07:24.764Z,5.73
2018-05-15T14:09:54.601Z,7.53
2018-05-15T14:12:24.142Z,6.63
2018-05-15T14:14:53.704Z,6.80
2018-05-15T14:17:23.151Z,7.03
2018-05-15T14:19:53.029Z,7.23
2018-05-15T14:22:22.470Z,6.47
2018-05-15T14:24:51.900Z,7.93
2018-05-15T14:27:21.348Z,5.00
2018-05-15T14:29:52.257Z,7.23
2018-05-15T14:32:21.672Z,8.77
2018-05-15T14:34:51.102Z,8.53
2018-05-15T14:37:20.534Z,6.80
2018-05-15T14:39:50.006Z,5.77
2018-05-15T14:42:30.583Z,6.03
2018-05-15T14:44:59.720Z,9.17
2018-05-15T14:47:29.325Z,6.40
2018-05-15T14:49:58.745Z,10.40
2018-05-15T14:52:28.209Z,7.17
2018-05-15T14:54:57.679Z,6.33
2018-05-15T14:57:26.936Z,6.50
2018-05-15T14:59:56.504Z,5.47
2018-05-15T15:02:25.949Z,5.70
2018-05-15T15:04:55.383Z,4.90
2018-05-15T15:07:24.844Z,5.87
2018-05-15T15:09:54.301Z,7.20
2018-05-15T15:12:23.748Z,7.23
2018-05-15T15:14:53.188Z,12.07
2018-05-15T15:17:22.775Z,8.50
2018-05-15T15:19:52.365Z,8.60
2018-05-15T15:22:21.836Z,7.77
2018-05-15T15:24:51.313Z,6.07
2018-05-15T15:27:20.769Z,8.10
2018-05-15T15:29:50.238Z,4.10
2018-05-15T15:32:19.681Z,7.50
2018-05-15T15:34:49.140Z,4.40
2018-05-15T15:37:18.605Z,5.23
2018-05-15T15:39:48.041Z,7.30
2018-05-15T15:42:17.501Z,11.60
2018-05-15T15:44:46.953Z,8.97
2018-05-15T15:47:16.824Z,7.63
2018-05-15T15:49:45.996Z,6.40
2018-05-15T15:52:15.840Z,5.33
2018-05-15T15:54:45.276Z,5.60
2018-05-15T15:57:14.727Z,5.20
2018-05-15T15:59:43.857Z,6.43
2018-05-15T16:02:13.375Z,5.17
2018-05-15T16:04:42.833Z,6.70
2018-05-15T16:07:12.296Z,8.97
2018-05-15T16:09:41.726Z,7.10
2018-05-15T16:12:11.206Z,8.00
2018-05-15T16:14:40.661Z,4.40
2018-05-15T16:17:10.150Z,4.80
2018-05-15T16:19:39.598Z,7.70
2018-05-15T16:22:09.126Z,7.90
2018-05-15T16:24:39.126Z,5.13
2018-05-15T16:27:08.586Z,6.00
2018-05-15T16:29:38.036Z,5.30
2018-05-15T16:32:07.901Z,5.20
2018-05-15T16:34:37.344Z,10.63
2018-05-15T16:37:06.603Z,5.30
2018-05-15T16:39:36.444Z,8.60
2018-05-15T16:42:05.897Z,11.33
2018-05-15T16:44:35.361Z,8.20
2018-05-15T16:47:05.251Z,5.47
2018-05-15T16:49:34.488Z,5.67
2018-05-15T16:52:03.966Z,15.27
2018-05-15T16:57:31.012Z,4.80
2018-05-15T17:00:00.476Z,8.57
2018-05-15T17:02:29.924Z,6.77
2018-05-15T17:04:59.369Z,4.90
2018-05-15T17:07:29.220Z,7.23
2018-05-15T17:09:58.664Z,8.10
2018-05-15T17:12:28.142Z,6.90
2018-05-15T17:14:57.600Z,5.63
2018-05-15T17:17:27.070Z,5.63
2018-05-15T17:19:56.581Z,5.23
2018-05-15T17:22:26.064Z,5.93
2018-05-15T17:24:56.072Z,6.13
2018-05-15T17:27:25.516Z,8.13
2018-05-15T17:29:54.986Z,9.37
2018-05-15T17:32:24.431Z,6.17
2018-05-15T17:34:53.861Z,8.40
2018-05-15T17:37:23.371Z,10.53
2018-05-15T17:39:53.207Z,8.83
2018-05-15T17:42:25.408Z,5.57
2018-05-15T17:44:54.873Z,9.00
2018-05-15T17:47:24.051Z,6.33
2018-05-15T17:49:53.644Z,8.00
2018-05-15T17:52:23.085Z,10.77
2018-05-15T17:54:52.576Z,11.23
2018-05-15T17:57:22.448Z,7.97
2018-05-15T17:59:51.900Z,5.80
2018-05-15T18:02:22.386Z,10.30
2018-05-15T18:04:52.237Z,7.53
2018-05-15T18:07:21.681Z,7.70
2018-05-15T18:09:51.125Z,6.70
2018-05-15T18:12:20.991Z,7.00
2018-05-15T18:14:50.468Z,7.20
2018-05-15T18:17:19.902Z,6.40
2018-05-15T18:19:49.766Z,9.83
2018-05-15T18:22:19.211Z,10.57
2018-05-15T18:24:48.880Z,8.93
2018-05-15T18:27:18.725Z,6.07
2018-05-15T18:29:48.171Z,6.40
2018-05-15T18:32:17.617Z,8.57
2018-05-15T18:34:47.070Z,7.27
2018-05-15T18:37:16.975Z,10.03
2018-05-15T18:39:46.456Z,8.40
2018-05-15T18:42:16.234Z,6.80
2018-05-15T18:44:45.722Z,9.97
2018-05-15T18:47:15.167Z,7.27
2018-05-15T18:49:44.835Z,6.13
2018-05-15T18:52:15.028Z,8.97
2018-05-15T18:54:45.059Z,6.63
2018-05-15T18:57:17.646Z,12.47
2018-05-15T18:59:48.537Z,6.50
2018-05-15T19:02:18.571Z,10.53
2018-05-15T19:04:48.472Z,8.93
2018-05-15T19:07:17.931Z,6.87
2018-05-15T19:09:47.382Z,9.93
2018-05-15T19:12:16.854Z,7.17
2018-05-15T19:14:46.866Z,9.30
2018-05-15T19:17:16.421Z,7.67
2018-05-15T19:19:46.278Z,7.60
2018-05-15T19:22:15.849Z,9.60
2018-05-15T19:24:45.394Z,10.47
2018-05-15T19:27:15.340Z,7.63
2018-05-15T19:29:45.224Z,12.00
2018-05-15T19:32:17.424Z,7.73
2018-05-15T19:34:52.472Z,7.80
2018-05-15T19:37:22.063Z,9.43
2018-05-15T19:39:52.410Z,11.97
2018-05-15T19:42:22.028Z,8.47
2018-05-15T19:44:52.720Z,11.47
2018-05-15T19:47:22.859Z,8.83
2018-05-15T19:49:52.814Z,9.80
2018-05-15T19:52:22.368Z,8.57
2018-05-15T19:54:51.804Z,9.50
2018-05-15T19:57:21.482Z,11.53
2018-05-15T19:59:51.114Z,9.87
2018-05-15T20:02:20.925Z,9.73
2018-05-15T20:04:50.877Z,8.27
2018-05-15T20:10:17.791Z,10.33
2018-05-15T20:12:47.316Z,13.23
2018-05-15T20:15:16.889Z,8.03
2018-05-15T20:17:46.445Z,11.60
2018-05-15T20:20:16.038Z,12.40
2018-05-15T20:22:45.548Z,11.57
2018-05-15T20:25:15.040Z,11.93
2018-05-15T20:27:45.066Z,9.13
2018-05-15T20:30:14.652Z,11.30
2018-05-15T20:32:44.402Z,9.77
2018-05-15T20:35:13.833Z,10.83
2018-05-15T20:37:43.697Z,11.20
2018-05-15T20:40:17.214Z,13.83
2018-05-15T20:42:46.716Z,9.87
2018-05-15T20:45:16.566Z,10.70
2018-05-15T20:47:46.030Z,10.63
2018-05-15T20:50:15.461Z,13.53
2018-05-15T20:52:44.938Z,11.93
2018-05-15T20:55:14.385Z,10.93
2018-05-15T20:57:43.840Z,11.73
2018-05-15T21:00:13.301Z,10.70
2018-05-15T21:02:42.761Z,10.43
2018-05-15T21:05:12.237Z,11.03
2018-05-15T21:07:41.701Z,11.13
2018-05-15T21:10:11.160Z,11.03
2018-05-15T21:12:40.620Z,12.77
2018-05-15T21:15:10.372Z,13.90
2018-05-15T21:17:40.323Z,11.23
2018-05-15T21:20:09.780Z,12.20
2018-05-15T21:22:39.229Z,10.80
2018-05-15T21:25:08.700Z,12.47
2018-05-15T21:27:38.171Z,11.87
2018-05-15T21:30:07.616Z,11.33
2018-05-15T21:32:37.071Z,11.67
2018-05-15T21:35:06.509Z,15.50
2018-05-15T21:37:35.990Z,13.20
2018-05-15T21:40:05.530Z,13.10
2018-05-15T21:42:34.892Z,12.17
2018-05-15T21:45:04.398Z,15.77
2018-05-15T21:47:33.876Z,13.07
2018-05-15T21:50:03.314Z,11.63
2018-05-15T21:52:32.977Z,12.70
2018-05-15T21:55:02.422Z,16.27
2018-05-15T21:57:31.904Z,13.87
2018-05-15T22:00:01.377Z,14.33
2018-05-15T22:02:30.785Z,13.90
2018-05-15T22:05:00.662Z,13.50
2018-05-15T22:07:29.827Z,13.00
2018-05-15T22:09:59.301Z,18.10
2018-05-15T22:12:39.976Z,13.00
2018-05-15T22:15:26.530Z,15.80
2018-05-15T22:18:13.231Z,12.60
2018-05-15T22:20:59.753Z,11.90
2018-05-15T22:23:33.788Z,11.60
2018-05-15T22:26:03.131Z,14.00
2018-05-15T22:28:32.594Z,12.77
2018-05-15T22:31:02.055Z,12.93
2018-05-15T22:33:31.653Z,16.47
2018-05-15T22:36:01.521Z,12.20
2018-05-15T22:38:31.053Z,13.10
2018-05-15T22:41:00.497Z,13.30
2018-05-15T22:43:29.969Z,13.63
2018-05-15T22:45:59.440Z,13.27
2018-05-15T22:48:28.908Z,14.03
2018-05-15T22:50:58.388Z,17.40
2018-05-15T22:53:27.876Z,13.47
2018-05-15T22:55:57.355Z,13.43
2018-05-15T22:58:27.227Z,14.10
2018-05-15T23:00:56.677Z,12.80
2018-05-15T23:03:26.128Z,18.53
2018-05-15T23:05:55.586Z,14.17
2018-05-15T23:08:25.033Z,12.70
2018-05-15T23:10:54.554Z,13.23
2018-05-15T23:13:24.027Z,13.10
2018-05-15T23:15:53.497Z,14.20
2018-05-15T23:18:22.970Z,13.40
2018-05-15T23:20:52.449Z,13.93
2018-05-15T23:23:21.914Z,12.37
2018-05-15T23:25:51.395Z,14.50
2018-05-15T23:28:20.869Z,16.63
2018-05-15T23:30:50.345Z,13.50
2018-05-15T23:33:19.801Z,13.23
2018-05-15T23:35:49.277Z,17.93
2018-05-15T23:38:18.765Z,12.37
2018-05-15T23:40:48.233Z,13.97
2018-05-15T23:43:18.113Z,12.80
2018-05-15T23:45:47.581Z,13.07
2018-05-15T23:48:17.447Z,15.37
2018-05-15T23:50:46.929Z,13.47
2018-05-15T23:53:16.433Z,12.87
2018-05-15T23:55:45.881Z,13.30
2018-05-15T23:58:15.721Z,13.97
